ADDS METAR Data INFO
IDs: Format: Raw Decoded Include TAF

Data at: 0310 UTC 20 Jul 2018

KJAU 200255Z AUTO 00000KT 10SM SCT055 BKN065 23/20 A3004 RMK A01
KJAU 200235Z AUTO 00000KT 10SM FEW048 BKN065 23/20 A3004 RMK A01
KJAU 200215Z AUTO 00000KT 10SM FEW047 23/20 A3003 RMK A01
KJAU 200155Z AUTO 00000KT 10SM CLR 23/20 A3002 RMK A01
KJAU 200135Z AUTO 00000KT 10SM FEW048 FEW055 24/20 A3001 RMK A01
KJAU 200115Z AUTO 00000KT 10SM BKN050 BKN060 25/20 A3000 RMK A01
KJAU 200055Z AUTO 00000KT 10SM BKN050 BKN065 25/20 A3000 RMK A01
KJAU 200035Z AUTO 00000KT 10SM FEW050 26/20 A3000 RMK A01
KJAU 200015Z AUTO 00000KT 10SM CLR 27/20 A2999 RMK A01
KJAU 192355Z AUTO 00000KT CLR 28/18 A3000 RMK A01
KJAU 192335Z AUTO 00000KT 10SM CLR 30/17 A2999 RMK A01
KJAU 192315Z AUTO 23003KT 10SM CLR 30/17 A2999 RMK A01
KJAU 192255Z AUTO 24005KT 10SM CLR 30/16 A2999 RMK A01
KJAU 192235Z AUTO 22006KT 10SM CLR 31/15 A2999 RMK A01
KJAU 192215Z AUTO 24003KT 10SM CLR 31/16 A2999 RMK A01
KJAU 192155Z AUTO 00000KT 10SM CLR 31/16 A2999 RMK A01
KJAU 192135Z AUTO VRB03KT 10SM FEW060 SCT070 31/18 A2999 RMK A01
KJAU 192115Z AUTO 00000KT 10SM FEW050 FEW055 FEW070 31/19 A2999 RMK A01
KJAU 192055Z AUTO VRB06KT 10SM FEW050 FEW055 31/19 A3000 RMK A01
KJAU 192035Z AUTO 20004G10KT 10SM CLR 31/19 A3000 RMK A01
KJAU 192015Z AUTO 23007KT 10SM CLR 31/19 A3000 RMK A01
KJAU 191955Z AUTO 21008KT 10SM CLR 31/19 A3001 RMK A01
KJAU 191935Z AUTO 20008KT 10SM CLR 31/19 A3001 RMK A01
KJAU 191915Z AUTO 17005G11KT 10SM CLR 31/20 A3001 RMK A01
KJAU 191855Z AUTO 16007G13KT 130V190 10SM SCT045 SCT055 31/20 A3002 RMK A01
KJAU 191835Z AUTO 17008KT 10SM 30/19 A3002 RMK A01
KJAU 191815Z AUTO VRB05KT 10SM FEW044 30/20 A3003 RMK A01
KJAU 191755Z AUTO VRB04KT 10SM CLR 30/19 A3004 RMK A01
KJAU 191735Z AUTO VRB03KT 10SM CLR 29/18 A3004 RMK A01
KJAU 191715Z AUTO VRB05KT 10SM CLR 29/19 A3005 RMK A01
KJAU 191655Z AUTO 09004KT 10SM CLR 28/18 A3005 RMK A01
KJAU 191635Z AUTO VRB04KT 10SM CLR 28/18 A3005 RMK A01
KJAU 191615Z AUTO 00000KT CLR 28/18 A3005 RMK A01
KJAU 191555Z AUTO VRB04KT 10SM CLR 27/17 A3005 RMK A01
KJAU 191535Z AUTO 00000KT 10SM CLR 27/17 A3006 RMK A01
KJAU 191515Z AUTO 05004KT 10SM CLR 26/17 A3006 RMK A01
KJAU 191455Z AUTO 00000KT 10SM CLR 26/17 A3007 RMK A01
KJAU 191435Z AUTO 00000KT 10SM CLR 25/16 A3007 RMK A01
KJAU 191415Z AUTO VRB03KT 10SM CLR 25/16 A3008 RMK A01
KJAU 191355Z AUTO 00000KT 10SM CLR 24/15 A3008 RMK A01
KJAU 191335Z AUTO 00000KT 10SM CLR 24/16 A3008 RMK A01
KJAU 191315Z AUTO 00000KT 10SM CLR 22/18 A3008 RMK A01
KJAU 191255Z AUTO 00000KT 10SM CLR 22/18 A3008 RMK A01
KJAU 191235Z AUTO 00000KT 10SM CLR 21/17 A3007 RMK A01
KJAU 191215Z AUTO 00000KT 10SM CLR 19/17 A3007 RMK A01
KJAU 191155Z AUTO 00000KT 10SM CLR 18/17 A3007 RMK A01
KJAU 191135Z AUTO 00000KT 10SM CLR 18/17 A3006 RMK A01
KJAU 191115Z AUTO 00000KT 10SM CLR 17/16 A3006 RMK A01
KJAU 191055Z AUTO 00000KT 10SM CLR 16/16 A3006 RMK A01
KJAU 191035Z AUTO 00000KT 8SM CLR 16/16 A3005 RMK A01
KJAU 191015Z AUTO 00000KT 8SM CLR 16/15 A3005 RMK A01
KJAU 190955Z AUTO 00000KT 8SM CLR 16/16 A3005 RMK A01
KJAU 190935Z AUTO 00000KT 9SM CLR 16/16 A3005 RMK A01
KJAU 190915Z AUTO 00000KT 2 1/2SM BR CLR 16/16 A3005 RMK A01 VIS 1V5
KJAU 190855Z AUTO 00000KT 9SM CLR 16/16 A3005 RMK A01
KJAU 190835Z AUTO 00000KT 3SM BR CLR 16/16 A3005 RMK A01
KJAU 190815Z AUTO 00000KT 8SM CLR 16/16 A3004 RMK A01
KJAU 190755Z AUTO 00000KT 4SM BR CLR 17/16 A3004 RMK A01
KJAU 190735Z AUTO 00000KT 8SM CLR 17/17 A3005 RMK A01
KJAU 190715Z AUTO 00000KT 10SM 17/17 A3005 RMK A01
KJAU 190655Z AUTO 00000KT 8SM CLR 17/16 A3005 RMK A01
KJAU 190635Z AUTO 00000KT 2 1/2SM BR CLR 17/17 A3006 RMK A01
KJAU 190615Z AUTO 00000KT 10SM CLR 17/17 A3006 RMK A01
KJAU 190555Z AUTO 00000KT 9SM CLR 17/17 A3006 RMK A01
KJAU 190535Z AUTO 00000KT 10SM CLR 18/17 A3007 RMK A01
KJAU 190515Z AUTO 00000KT 10SM CLR 18/18 A3007 RMK A01
KJAU 190455Z AUTO 00000KT 10SM CLR 18/18 A3007 RMK A01
KJAU 190435Z AUTO 00000KT 10SM CLR 18/18 A3006 RMK A01
KJAU 190415Z AUTO 00000KT 10SM CLR 19/18 A3006 RMK A01
KJAU 190355Z AUTO 00000KT 10SM CLR 19/18 A3006 RMK A01
KJAU 190335Z AUTO 00000KT 10SM CLR 19/18 A3006 RMK A01
KJAU 190315Z AUTO 00000KT 10SM CLR 19/19 A3006 RMK A01
KJAU 190255Z AUTO 00000KT 10SM CLR 20/19 A3005 RMK A01
KJAU 190235Z AUTO 00000KT 10SM CLR 20/19 A3005 RMK A01
KJAU 190215Z AUTO 00000KT 10SM CLR 20/19 A3004 RMK A01
KJAU 190155Z AUTO 00000KT 10SM CLR 21/18 A3004 RMK A01
KJAU 190135Z AUTO 00000KT 10SM CLR 21/18 A3004 RMK A01
KJAU 190115Z AUTO 00000KT 10SM CLR 22/18 A3003 RMK A01
KJAU 190055Z AUTO 00000KT 10SM CLR 23/18 A3003 RMK A01
KJAU 190035Z AUTO 00000KT 10SM CLR 25/18 A3003 RMK A01
KJAU 190015Z AUTO 00000KT 10SM CLR 26/18 A3002 RMK A01
KJAU 182355Z AUTO 00000KT 10SM CLR 27/18 A3003 RMK A01
KJAU 182335Z AUTO 03005KT 10SM CLR 27/17 A3002 RMK A01
KJAU 182315Z AUTO 00000KT 10SM CLR 28/17 A3002 RMK A01
KJAU 182255Z AUTO 04005KT 10SM CLR 28/17 A3002 RMK A01
KJAU 182235Z AUTO 03007KT 10SM CLR 28/16 A3002 RMK A01
KJAU 182215Z AUTO 04007KT 10SM CLR 29/17 A3002 RMK A01
KJAU 182155Z AUTO 05007KT 10SM CLR 29/16 A3002 RMK A01
KJAU 182135Z AUTO 04008KT 10SM CLR 29/16 A3002 RMK A01
KJAU 182115Z AUTO 03007KT 10SM CLR 29/16 A3002 RMK A01
KJAU 182055Z AUTO VRB06G13KT 10SM CLR 29/16 A3002 RMK A01
KJAU 182035Z AUTO 03008KT 10SM CLR 29/16 A3003 RMK A01
KJAU 182015Z AUTO 02006KT 10SM CLR 29/16 A3004 RMK A01
KJAU 181955Z AUTO 04009KT 10SM CLR 30/16 A3005 RMK A01
KJAU 181935Z AUTO VRB03G11KT 10SM CLR 29/16 A3005 RMK A01
KJAU 181915Z AUTO 03005G11KT 10SM CLR 30/16 A3006 RMK A01
KJAU 181855Z AUTO 04006G13KT 10SM CLR 29/16 A3006 RMK A01
KJAU 181835Z AUTO 00000KT 10SM CLR 29/16 A3006 RMK A01
KJAU 181815Z AUTO VRB04KT 10SM FEW055 30/15 A3006 RMK A01
KJAU 181755Z AUTO VRB03KT 10SM SCT050 SCT060 28/16 A3007 RMK A01
KJAU 181735Z AUTO VRB04KT 10SM BKN050 BKN060 28/16 A3007 RMK A01
KJAU 181715Z AUTO VRB03KT 10SM SCT050 SCT055 28/17 A3008 RMK A01
KJAU 181655Z AUTO VRB03KT 10SM CLR 29/17 A3008 RMK A01
KJAU 181635Z AUTO 03006KT 10SM FEW049 28/17 A3009 RMK A01
KJAU 181615Z AUTO VRB04KT 10SM FEW048 28/17 A3009 RMK A01
KJAU 181555Z AUTO 00000KT 10SM CLR 28/17 A3009 RMK A01
KJAU 181535Z AUTO 00000KT 10SM CLR 27/17 A3009 RMK A01
KJAU 181515Z AUTO 01004KT 10SM CLR 27/18 A3010 RMK A01